Time;durP1;ratioP1;P1;durP2;ratioP2;P2;SDS_P1;SDS_P2;PMS_P1;PMS_P2;Temp;Humidity;BMP_temperature;BMP_pressure;BME280_temperature;BME280_humidity;BME280_pressure;Samples;Min_cycle;Max_cycle;Signal;HPM_P1;HPM_P2
2023/09/20 00:01:53;;;;;;;12.82;2.45;;;34.30;27.00;;;;;;5049313;28;20116;-69
2023/09/20 00:04:21;;;;;;;5.85;2.40;;;34.40;27.50;;;;;;5047597;28;20017;-70
2023/09/20 00:06:49;;;;;;;4.70;2.08;;;34.10;27.30;;;;;;5036933;28;20025;-71
2023/09/20 00:09:17;;;;;;;3.53;2.10;;;33.80;27.20;;;;;;5050441;28;20017;-68
2023/09/20 00:11:46;;;;;;;4.80;2.15;;;34.00;27.40;;;;;;5044405;28;20359;-69
2023/09/20 00:14:13;;;;;;;5.88;2.28;;;34.20;27.30;;;;;;5045828;28;20446;-70
2023/09/20 00:16:41;;;;;;;9.15;2.20;;;34.10;27.50;;;;;;5053443;28;20028;-70
2023/09/20 00:19:08;;;;;;;6.28;2.33;;;33.80;27.40;;;;;;5053010;28;20040;-70
2023/09/20 00:21:36;;;;;;;7.97;2.42;;;33.70;27.20;;;;;;5049125;28;20500;-69
2023/09/20 00:24:06;;;;;;;5.60;2.40;;;33.70;27.10;;;;;;5046246;28;20029;-68
2023/09/20 00:26:34;;;;;;;7.80;2.28;;;33.70;27.40;;;;;;5040827;28;20524;-69
2023/09/20 00:29:05;;;;;;;4.88;2.10;;;33.90;27.70;;;;;;5049995;28;20052;-69
2023/09/20 00:31:33;;;;;;;5.03;1.90;;;34.40;27.30;;;;;;5050712;28;20262;-68
2023/09/20 00:34:03;;;;;;;6.47;2.53;;;33.90;27.30;;;;;;5053231;28;20035;-71
2023/09/20 00:36:31;;;;;;;4.65;2.28;;;33.90;27.30;;;;;;5047055;28;20070;-69
2023/09/20 00:39:00;;;;;;;9.50;2.53;;;33.70;27.30;;;;;;5072103;28;20386;-70
2023/09/20 00:41:28;;;;;;;4.45;2.55;;;33.80;27.60;;;;;;5047182;28;20086;-70
2023/09/20 00:43:55;;;;;;;5.15;2.08;;;33.70;27.60;;;;;;5050430;28;20032;-70
2023/09/20 00:46:24;;;;;;;3.60;2.50;;;34.40;27.40;;;;;;5058818;28;20437;-70
2023/09/20 00:48:53;;;;;;;6.35;2.40;;;34.20;27.40;;;;;;5054540;28;20021;-70
2023/09/20 00:51:21;;;;;;;7.18;2.13;;;34.00;27.50;;;;;;5051398;28;20068;-69
2023/09/20 00:53:55;;;;;;;8.65;2.92;;;33.50;27.60;;;;;;5048297;28;20174;-69
2023/09/20 00:56:23;;;;;;;5.95;2.05;;;33.80;27.90;;;;;;5052261;28;20021;-69
2023/09/20 00:58:52;;;;;;;6.80;2.00;;;33.90;27.50;;;;;;5055665;28;20029;-70
2023/09/20 01:01:20;;;;;;;8.43;2.47;;;34.40;27.70;;;;;;5044199;28;20021;-70
2023/09/20 01:03:47;;;;;;;3.40;2.00;;;34.70;27.10;;;;;;5056952;28;20035;-69
2023/09/20 01:06:19;;;;;;;5.88;2.55;;;34.50;27.20;;;;;;5052611;28;20016;-69
2023/09/20 01:08:47;;;;;;;4.28;2.33;;;34.80;27.50;;;;;;5052593;28;20056;-73
2023/09/20 01:11:15;;;;;;;4.97;2.58;;;34.90;27.40;;;;;;5041785;28;20525;-71
2023/09/20 01:13:43;;;;;;;6.97;2.70;;;34.90;27.60;;;;;;5061542;28;20440;-71
2023/09/20 01:16:11;;;;;;;5.28;2.20;;;35.10;27.60;;;;;;5057776;28;20115;-70
2023/09/20 01:18:39;;;;;;;5.50;2.25;;;35.30;27.20;;;;;;5057542;28;20020;-71
2023/09/20 01:21:06;;;;;;;9.43;2.08;;;35.00;27.50;;;;;;5058611;28;20028;-69
2023/09/20 01:23:34;;;;;;;5.53;1.98;;;35.30;27.20;;;;;;5047039;28;20071;-71
2023/09/20 01:26:03;;;;;;;6.60;2.30;;;35.30;27.20;;;;;;5044919;28;20025;-72
2023/09/20 01:28:31;;;;;;;5.93;2.38;;;35.40;27.30;;;;;;5053222;28;20107;-70
2023/09/20 01:31:00;;;;;;;5.10;2.38;;;35.10;27.40;;;;;;5048319;28;20056;-70
2023/09/20 01:33:27;;;;;;;5.32;2.03;;;35.40;27.10;;;;;;5061518;28;20025;-72
2023/09/20 01:35:55;;;;;;;6.22;2.58;;;35.70;27.10;;;;;;5052586;28;20029;-69
2023/09/20 01:38:22;;;;;;;6.60;2.28;;;35.30;26.90;;;;;;5056215;28;20431;-69
2023/09/20 01:40:50;;;;;;;6.55;2.88;;;35.30;26.80;;;;;;5049671;28;20017;-70
2023/09/20 01:43:18;;;;;;;6.43;2.50;;;35.20;27.00;;;;;;5058306;28;20376;-71
2023/09/20 01:45:48;;;;;;;7.97;2.80;;;35.60;26.60;;;;;;5049471;28;20516;-72
2023/09/20 01:48:15;;;;;;;7.55;2.25;;;35.70;26.60;;;;;;5042621;28;20092;-71
2023/09/20 01:50:43;;;;;;;8.40;2.70;;;35.40;26.50;;;;;;5025330;28;20112;-69
2023/09/20 01:53:11;;;;;;;9.70;2.63;;;35.00;26.80;;;;;;5053798;28;20067;-71
2023/09/20 01:55:44;;;;;;;6.03;2.58;;;34.90;27.00;;;;;;5050673;28;20091;-70
2023/09/20 01:58:15;;;;;;;8.43;2.45;;;35.00;26.50;;;;;;5052450;28;20025;-70
2023/09/20 02:00:43;;;;;;;7.45;2.30;;;34.80;26.50;;;;;;5052907;28;20021;-70
2023/09/20 02:03:18;;;;;;;3.53;2.28;;;35.00;26.50;;;;;;5054562;28;20561;-70
2023/09/20 02:05:49;;;;;;;3.03;2.17;;;35.20;27.00;;;;;;5052302;28;20037;-70
2023/09/20 02:08:18;;;;;;;3.60;2.20;;;35.20;26.80;;;;;;5051573;28;20082;-69
2023/09/20 02:10:46;;;;;;;4.07;2.30;;;35.30;26.80;;;;;;5058880;28;20031;-70
2023/09/20 02:13:17;;;;;;;3.85;2.35;;;35.50;26.80;;;;;;5051205;28;20021;-69
2023/09/20 02:15:46;;;;;;;4.75;2.70;;;35.70;26.90;;;;;;5048082;28;20399;-72
2023/09/20 02:18:14;;;;;;;6.93;2.20;;;36.10;26.70;;;;;;5050822;28;20021;-71
2023/09/20 02:20:42;;;;;;;6.40;2.33;;;36.00;26.70;;;;;;5062820;28;20103;-71
2023/09/20 02:23:15;;;;;;;5.88;2.13;;;36.00;26.70;;;;;;5048843;28;20057;-70
2023/09/20 02:25:43;;;;;;;4.53;2.00;;;36.00;26.70;;;;;;5048683;28;20111;-71
2023/09/20 02:28:10;;;;;;;5.07;2.47;;;35.80;26.50;;;;;;5064992;28;20032;-70
2023/09/20 02:30:38;;;;;;;10.85;2.40;;;35.60;26.90;;;;;;5056877;28;20025;-69
2023/09/20 02:33:08;;;;;;;5.15;2.63;;;35.60;27.00;;;;;;5049208;28;20058;-70
2023/09/20 02:35:39;;;;;;;6.00;2.50;;;35.50;26.80;;;;;;5055602;28;20033;-69
2023/09/20 02:38:06;;;;;;;9.73;2.42;;;35.80;26.70;;;;;;5055371;28;20365;-71
2023/09/20 02:40:35;;;;;;;6.15;2.65;;;35.90;26.70;;;;;;5052207;28;20028;-70
2023/09/20 02:43:07;;;;;;;11.13;2.95;;;36.10;26.60;;;;;;5056225;28;20044;-69
2023/09/20 02:45:36;;;;;;;6.28;2.88;;;35.60;26.20;;;;;;5056985;28;20531;-69
2023/09/20 02:48:05;;;;;;;13.07;2.80;;;35.40;26.40;;;;;;5057696;28;20023;-71
2023/09/20 02:50:32;;;;;;;6.78;2.72;;;35.80;26.20;;;;;;5054418;28;20044;-71
2023/09/20 02:53:00;;;;;;;7.65;2.72;;;36.00;26.50;;;;;;5054973;28;20060;-71
2023/09/20 02:55:31;;;;;;;8.70;2.80;;;36.10;26.20;;;;;;5059422;28;20104;-70
2023/09/20 02:57:58;;;;;;;6.25;2.70;;;35.90;26.20;;;;;;5059885;28;20420;-70
2023/09/20 03:00:28;;;;;;;5.93;2.83;;;35.90;26.30;;;;;;5057425;28;20029;-71
2023/09/20 03:03:00;;;;;;;10.82;2.90;;;36.00;26.30;;;;;;5056059;28;20048;-71
2023/09/20 03:05:30;;;;;;;4.03;2.30;;;35.70;25.80;;;;;;5058127;28;20029;-72
2023/09/20 03:07:58;;;;;;;9.35;2.83;;;35.40;25.90;;;;;;5058842;28;20390;-71
2023/09/20 03:10:27;;;;;;;4.93;2.60;;;35.40;26.20;;;;;;5056524;28;20020;-71
2023/09/20 03:12:57;;;;;;;6.05;2.55;;;35.50;26.10;;;;;;5056526;28;20028;-71
2023/09/20 03:15:27;;;;;;;11.50;3.15;;;35.70;26.10;;;;;;5064355;28;20071;-71
2023/09/20 03:17:57;;;;;;;8.52;2.67;;;35.60;26.10;;;;;;5062493;28;20028;-71
2023/09/20 03:20:26;;;;;;;6.63;2.58;;;35.90;25.90;;;;;;5061794;28;20064;-70
2023/09/20 03:22:56;;;;;;;8.50;3.15;;;35.80;25.90;;;;;;5061976;28;20057;-70
2023/09/20 03:25:24;;;;;;;6.55;2.50;;;35.80;26.00;;;;;;5054450;28;20131;-72
2023/09/20 03:27:53;;;;;;;19.20;3.67;;;35.90;25.70;;;;;;5065464;28;20099;-71
2023/09/20 03:30:20;;;;;;;9.75;2.90;;;35.50;26.10;;;;;;5064565;28;20021;-70
2023/09/20 03:32:49;;;;;;;6.20;2.60;;;35.50;26.20;;;;;;5061791;28;20035;-71
2023/09/20 03:35:19;;;;;;;5.60;2.55;;;35.70;26.20;;;;;;5042540;28;20037;-69
2023/09/20 03:37:47;;;;;;;7.80;2.67;;;35.90;26.20;;;;;;5073140;28;20389;-71
2023/09/20 03:40:19;;;;;;;3.50;2.25;;;36.10;26.00;;;;;;5054010;28;20036;-70
2023/09/20 03:42:57;;;;;;;16.08;6.28;;;36.10;26.00;;;;;;5053419;28;20048;-70
2023/09/20 03:45:26;;;;;;;9.73;2.90;;;36.10;26.20;;;;;;5050709;28;20094;-76
2023/09/20 03:47:54;;;;;;;4.43;2.78;;;36.40;26.20;;;;;;5048991;28;20054;-70
2023/09/20 03:50:22;;;;;;;6.20;2.58;;;36.20;25.90;;;;;;5047927;28;20020;-70
2023/09/20 03:52:50;;;;;;;10.75;2.58;;;36.20;26.20;;;;;;5056724;28;20433;-70
2023/09/20 03:55:17;;;;;;;5.55;2.85;;;36.30;26.30;;;;;;5055700;28;20358;-73
2023/09/20 03:57:44;;;;;;;8.70;2.80;;;36.20;26.10;;;;;;5051025;28;20047;-71
2023/09/20 04:00:16;;;;;;;4.60;2.83;;;36.00;26.00;;;;;;5050344;28;20036;-71
2023/09/20 04:02:48;;;;;;;8.93;2.53;;;35.50;26.00;;;;;;5049515;28;20029;-72
2023/09/20 04:05:17;;;;;;;8.90;3.10;;;35.60;26.20;;;;;;5049512;28;20030;-73
2023/09/20 04:07:47;;;;;;;5.32;2.58;;;35.60;26.20;;;;;;5053804;28;20029;-70
2023/09/20 04:10:18;;;;;;;5.68;2.22;;;35.80;26.10;;;;;;5050160;28;20035;-69
2023/09/20 04:12:47;;;;;;;9.77;2.90;;;35.90;26.10;;;;;;5051295;28;20119;-69
2023/09/20 04:15:15;;;;;;;4.95;2.50;;;36.10;25.90;;;;;;5050364;28;20055;-69
2023/09/20 04:17:43;;;;;;;10.00;2.95;;;36.00;26.10;;;;;;5051242;28;20028;-73
2023/09/20 04:20:12;;;;;;;10.80;2.83;;;35.90;25.40;;;;;;5055256;28;20084;-71
2023/09/20 04:22:41;;;;;;;10.82;3.33;;;36.00;25.70;;;;;;5049318;28;20100;-73
2023/09/20 04:25:10;;;;;;;9.70;3.28;;;36.10;25.20;;;;;;5055153;28;20078;-73
2023/09/20 04:27:38;;;;;;;7.47;2.90;;;36.20;25.30;;;;;;5052401;28;20390;-73
2023/09/20 04:30:09;;;;;;;10.63;3.08;;;36.30;25.80;;;;;;5058603;28;20029;-72
2023/09/20 04:32:38;;;;;;;8.38;2.92;;;36.50;25.10;;;;;;5059063;28;20082;-70
2023/09/20 04:35:06;;;;;;;7.43;2.75;;;36.40;25.00;;;;;;5056495;28;20033;-72
2023/09/20 04:37:33;;;;;;;5.75;2.80;;;36.00;25.20;;;;;;5057569;28;20024;-72
2023/09/20 04:40:01;;;;;;;9.13;3.00;;;36.00;25.60;;;;;;5059342;28;20032;-70
2023/09/20 04:42:32;;;;;;;8.18;3.10;;;36.20;25.00;;;;;;5054860;28;20112;-72
2023/09/20 04:45:00;;;;;;;7.90;2.88;;;36.00;25.40;;;;;;5047565;28;20115;-72
2023/09/20 04:47:31;;;;;;;7.10;2.65;;;35.90;25.30;;;;;;5057710;28;20031;-70
2023/09/20 04:49:59;;;;;;;9.52;3.20;;;35.90;25.10;;;;;;5051832;28;20120;-72
2023/09/20 04:52:26;;;;;;;8.55;3.63;;;35.90;25.20;;;;;;5056545;28;20079;-72
2023/09/20 04:54:55;;;;;;;7.90;2.90;;;35.80;25.30;;;;;;5058098;28;20020;-71
2023/09/20 04:57:23;;;;;;;13.95;3.22;;;35.90;25.20;;;;;;5053059;28;20376;-71
2023/09/20 04:59:50;;;;;;;13.88;2.97;;;35.70;25.10;;;;;;5056750;28;20120;-70
2023/09/20 05:02:17;;;;;;;5.53;2.92;;;35.50;25.30;;;;;;5053496;28;20029;-71
2023/09/20 05:04:45;;;;;;;4.80;2.90;;;35.80;25.20;;;;;;5052815;28;20033;-70
2023/09/20 05:07:12;;;;;;;9.20;2.67;;;35.60;25.00;;;;;;5057940;28;20024;-71
2023/09/20 05:09:40;;;;;;;10.25;2.97;;;35.40;25.20;;;;;;5051740;28;20036;-70
2023/09/20 05:12:09;;;;;;;9.55;3.42;;;35.60;25.30;;;;;;5057034;28;20017;-69
2023/09/20 05:14:36;;;;;;;7.57;2.85;;;35.60;25.20;;;;;;5052582;28;20033;-70
2023/09/20 05:17:04;;;;;;;10.80;2.90;;;35.90;25.20;;;;;;5050665;28;20028;-69
2023/09/20 05:19:31;;;;;;;7.38;3.42;;;35.70;25.10;;;;;;5054200;28;20082;-69
2023/09/20 05:22:00;;;;;;;13.60;3.08;;;35.60;25.20;;;;;;5056933;28;20072;-69
2023/09/20 05:24:30;;;;;;;6.90;2.95;;;35.40;25.00;;;;;;5046231;28;20036;-71
2023/09/20 05:26:58;;;;;;;8.68;3.05;;;35.40;25.00;;;;;;5052105;28;20228;-71
2023/09/20 05:29:25;;;;;;;5.75;2.70;;;35.30;25.00;;;;;;5056688;28;20025;-69
2023/09/20 05:31:55;;;;;;;6.30;2.78;;;35.20;25.10;;;;;;5053467;28;20032;-69
2023/09/20 05:34:23;;;;;;;9.68;2.88;;;35.40;25.10;;;;;;5049192;28;20017;-69
2023/09/20 05:36:52;;;;;;;10.82;3.35;;;35.30;25.10;;;;;;5047885;28;20104;-71
2023/09/20 05:39:19;;;;;;;9.57;2.78;;;35.20;25.00;;;;;;5056067;28;20040;-70
2023/09/20 05:41:47;;;;;;;11.00;3.17;;;35.00;25.00;;;;;;5046867;28;20067;-70
2023/09/20 05:44:14;;;;;;;5.78;2.60;;;34.90;25.10;;;;;;5051774;28;20032;-70
2023/09/20 05:46:41;;;;;;;9.35;3.20;;;34.90;25.00;;;;;;5039914;28;20056;-72
2023/09/20 05:49:09;;;;;;;9.90;2.97;;;35.10;25.20;;;;;;5048784;28;20040;-73
2023/09/20 05:51:37;;;;;;;13.75;3.92;;;34.90;25.10;;;;;;5047666;28;20098;-71
2023/09/20 05:54:09;;;;;;;8.95;3.28;;;34.80;25.30;;;;;;5048656;28;20615;-71
2023/09/20 05:56:37;;;;;;;7.72;3.20;;;34.80;25.30;;;;;;5047450;28;20052;-68
2023/09/20 05:59:06;;;;;;;10.80;3.40;;;34.90;25.30;;;;;;5046907;28;20475;-70
2023/09/20 06:01:39;;;;;;;6.57;2.90;;;34.80;25.30;;;;;;5053929;28;20021;-69
2023/09/20 06:04:10;;;;;;;9.90;2.95;;;34.80;25.30;;;;;;5037320;28;20511;-73
2023/09/20 06:06:38;;;;;;;7.13;2.53;;;34.50;25.10;;;;;;5050780;28;20831;-70
2023/09/20 06:09:05;;;;;;;7.63;3.08;;;34.50;25.40;;;;;;5051351;28;20465;-71
2023/09/20 06:11:33;;;;;;;8.35;3.22;;;34.50;25.50;;;;;;5056752;28;20028;-72
2023/09/20 06:14:01;;;;;;;6.82;3.10;;;34.50;25.30;;;;;;5040763;28;20087;-72
2023/09/20 06:16:32;;;;;;;7.38;3.03;;;34.40;26.00;;;;;;5052496;28;20549;-70
2023/09/20 06:18:59;;;;;;;9.50;3.05;;;34.40;25.40;;;;;;5056341;28;20503;-70
2023/09/20 06:21:27;;;;;;;5.97;2.92;;;34.40;25.60;;;;;;5054802;28;20051;-70
2023/09/20 06:23:54;;;;;;;4.03;2.70;;;34.50;25.40;;;;;;5044055;28;20052;-70
2023/09/20 06:26:22;;;;;;;8.85;3.17;;;34.30;25.40;;;;;;5040347;28;20027;-72
2023/09/20 06:28:50;;;;;;;9.10;2.85;;;34.20;25.50;;;;;;5051428;28;20454;-71
2023/09/20 06:31:18;;;;;;;6.60;3.03;;;34.00;25.30;;;;;;5035823;28;20126;-70
2023/09/20 06:33:46;;;;;;;8.18;2.85;;;34.00;25.40;;;;;;5048446;28;20071;-70
2023/09/20 06:36:18;;;;;;;7.18;3.85;;;33.80;25.50;;;;;;5048265;28;20103;-70
2023/09/20 06:38:47;;;;;;;4.60;2.88;;;33.80;26.00;;;;;;5054298;28;20382;-70
2023/09/20 06:41:15;;;;;;;8.18;3.10;;;33.90;25.80;;;;;;5052312;28;20032;-70
2023/09/20 06:43:42;;;;;;;5.78;2.55;;;33.80;25.90;;;;;;5030303;28;20357;-71
2023/09/20 06:46:15;;;;;;;4.53;2.90;;;33.70;25.90;;;;;;5009906;28;20199;-71
2023/09/20 06:48:42;;;;;;;6.70;2.83;;;33.70;25.90;;;;;;4956884;28;20446;-72
2023/09/20 06:51:12;;;;;;;9.48;3.22;;;33.70;26.00;;;;;;5007875;28;20408;-71
2023/09/20 06:53:40;;;;;;;6.22;2.92;;;33.70;26.00;;;;;;5042738;28;20477;-70
2023/09/20 06:56:07;;;;;;;4.70;2.80;;;33.60;25.90;;;;;;5041978;28;20021;-69
2023/09/20 06:58:36;;;;;;;5.68;2.88;;;33.50;26.00;;;;;;5058145;28;20079;-68
2023/09/20 07:01:05;;;;;;;5.50;2.95;;;33.40;26.00;;;;;;5041889;28;20089;-70
2023/09/20 07:03:32;;;;;;;7.88;2.80;;;33.30;26.10;;;;;;5051997;28;20486;-69
2023/09/20 07:06:00;;;;;;;8.43;3.05;;;33.40;26.10;;;;;;5049410;28;20032;-70
2023/09/20 07:08:34;;;;;;;7.47;2.80;;;33.20;26.00;;;;;;5049169;28;20052;-71
2023/09/20 07:11:04;;;;;;;7.82;3.17;;;33.10;26.10;;;;;;5051745;28;20478;-71
2023/09/20 07:13:34;;;;;;;6.00;2.92;;;33.10;26.20;;;;;;5051245;28;20025;-70
2023/09/20 07:16:05;;;;;;;5.72;2.83;;;33.00;26.40;;;;;;5051154;28;20021;-69
2023/09/20 07:18:32;;;;;;;9.38;3.33;;;32.90;26.50;;;;;;5051746;28;20048;-71
2023/09/20 07:20:59;;;;;;;8.68;3.17;;;32.90;26.40;;;;;;5062310;28;20034;-70
2023/09/20 07:23:29;;;;;;;7.30;3.47;;;32.70;26.60;;;;;;5048785;28;20053;-69
2023/09/20 07:25:56;;;;;;;6.00;2.97;;;32.70;26.50;;;;;;5061692;28;20025;-69
2023/09/20 07:28:24;;;;;;;7.68;2.80;;;32.60;26.60;;;;;;5056222;28;20072;-68
2023/09/20 07:30:54;;;;;;;11.45;3.33;;;32.40;26.60;;;;;;5049164;28;20028;-71
2023/09/20 07:33:23;;;;;;;6.13;2.92;;;32.30;26.60;;;;;;5047919;28;20056;-70
2023/09/20 07:36:00;;;;;;;11.52;3.22;;;32.20;26.60;;;;;;5056683;28;20036;-69
2023/09/20 07:38:29;;;;;;;7.47;3.50;;;32.20;26.70;;;;;;5044630;28;20064;-70
2023/09/20 07:41:13;;;;;;;8.20;3.28;;;32.10;26.80;;;;;;5058231;28;20032;-70
2023/09/20 07:43:44;;;;;;;9.88;3.30;;;31.90;27.00;;;;;;5050871;28;20040;-70
2023/09/20 07:46:13;;;;;;;7.97;2.97;;;31.80;26.90;;;;;;5062139;28;20028;-69
2023/09/20 07:48:47;;;;;;;8.65;3.28;;;31.80;27.00;;;;;;5060374;28;20029;-69
2023/09/20 07:51:19;;;;;;;8.25;2.90;;;31.70;27.10;;;;;;5052345;28;20020;-69
2023/09/20 07:53:53;;;;;;;10.77;3.47;;;31.50;27.50;;;;;;5064715;28;20489;-68
2023/09/20 07:56:22;;;;;;;9.07;3.35;;;31.40;27.20;;;;;;5051074;28;20026;-70
2023/09/20 07:58:51;;;;;;;6.85;3.33;;;31.40;27.30;;;;;;5057475;28;20027;-71
2023/09/20 08:01:18;;;;;;;7.65;3.65;;;31.30;27.00;;;;;;5056853;28;20047;-70
2023/09/20 08:03:53;;;;;;;13.02;3.08;;;31.30;27.20;;;;;;5063900;28;20032;-70
2023/09/20 08:06:21;;;;;;;8.10;3.72;;;31.20;27.20;;;;;;5059146;28;20506;-70
2023/09/20 08:08:49;;;;;;;10.35;3.28;;;31.10;27.30;;;;;;5059387;28;20027;-69
2023/09/20 08:11:16;;;;;;;7.28;3.00;;;31.10;27.50;;;;;;5058990;28;20036;-69
2023/09/20 08:13:43;;;;;;;6.55;2.90;;;31.00;27.50;;;;;;5058812;28;20419;-68
2023/09/20 08:16:12;;;;;;;7.07;3.38;;;30.90;27.50;;;;;;5062423;28;20029;-69
2023/09/20 08:21:26;;;;;;;6.97;3.30;;;30.90;27.60;;;;;;5061096;28;20040;-69
2023/09/20 09:00:24;;;;;;;6.82;3.08;;;30.30;27.80;;;;;;5062263;28;20092;-70
2023/09/20 09:02:54;;;;;;;;;;;30.30;27.80;;;;;;5053115;28;20040;-71
2023/09/20 09:05:24;;;;;;;7.00;3.25;;;30.20;27.90;;;;;;5054598;28;19905;-68
2023/09/20 09:07:52;;;;;;;6.10;2.70;;;30.20;27.90;;;;;;5051583;28;20526;-68
2023/09/20 09:10:19;;;;;;;5.28;2.85;;;30.00;27.90;;;;;;5054490;28;20040;-70
2023/09/20 09:12:47;;;;;;;5.45;3.30;;;30.00;28.20;;;;;;5070303;28;20052;-69
2023/09/20 09:15:18;;;;;;;10.63;3.45;;;29.90;28.10;;;;;;5051040;28;20115;-69
2023/09/20 09:17:52;;;;;;;6.65;3.40;;;29.90;28.10;;;;;;5051427;28;20028;-70
2023/09/20 09:20:20;;;;;;;8.65;3.15;;;29.90;28.10;;;;;;5046986;28;20117;-71
2023/09/20 09:22:48;;;;;;;5.18;3.22;;;29.80;28.10;;;;;;5054525;28;20102;-69
2023/09/20 09:25:30;;;;;;;9.40;3.40;;;29.80;28.20;;;;;;5050680;28;20033;-71
2023/09/20 09:27:58;;;;;;;4.88;3.63;;;29.70;28.30;;;;;;5053279;28;20112;-69
2023/09/20 09:30:25;;;;;;;8.82;3.40;;;29.70;28.40;;;;;;5063699;28;20025;-70
2023/09/20 09:32:53;;;;;;;8.50;3.10;;;29.50;28.60;;;;;;5060350;28;20029;-70
2023/09/20 09:35:21;;;;;;;7.53;3.25;;;29.20;28.60;;;;;;5066490;28;20425;-71
2023/09/20 09:37:48;;;;;;;6.07;2.85;;;29.00;28.90;;;;;;5060685;28;20025;-69
2023/09/20 09:40:21;;;;;;;5.95;3.22;;;29.00;28.90;;;;;;5050232;28;20052;-70
2023/09/20 09:42:49;;;;;;;7.95;3.25;;;29.00;28.90;;;;;;5054681;28;20465;-69
2023/09/20 09:45:33;;;;;;;7.63;3.58;;;28.90;29.00;;;;;;5057409;28;20389;-70
2023/09/20 09:48:06;;;;;;;6.20;3.28;;;29.00;28.70;;;;;;5053838;28;20036;-69
2023/09/20 09:50:38;;;;;;;7.75;3.17;;;29.10;28.70;;;;;;5053283;28;20120;-68
2023/09/20 09:53:09;;;;;;;5.63;3.20;;;29.10;28.70;;;;;;5056854;28;20055;-70
2023/09/20 09:55:38;;;;;;;5.85;2.83;;;29.00;28.90;;;;;;5057707;28;20021;-70
2023/09/20 09:58:08;;;;;;;5.20;3.03;;;29.30;28.60;;;;;;5057847;28;20029;-69
2023/09/20 10:00:39;;;;;;;9.88;3.08;;;29.50;28.60;;;;;;5056870;28;20021;-70
2023/09/20 10:03:21;;;;;;;7.85;3.47;;;29.40;28.60;;;;;;5059192;28;20036;-72
2023/09/20 10:05:52;;;;;;;5.45;3.03;;;29.40;28.70;;;;;;5054046;28;20033;-70
2023/09/20 10:08:24;;;;;;;7.35;3.05;;;29.30;28.70;;;;;;5041709;28;20043;-69
2023/09/20 10:10:52;;;;;;;8.07;3.00;;;29.30;28.60;;;;;;5040893;28;20618;-70
2023/09/20 10:13:19;;;;;;;6.38;2.92;;;29.40;28.70;;;;;;5047059;28;21030;-71
2023/09/20 10:15:49;;;;;;;5.07;3.17;;;29.40;28.80;;;;;;5047295;28;20446;-70
2023/09/20 10:18:17;;;;;;;10.10;3.42;;;29.30;28.70;;;;;;5046054;28;20050;-69
2023/09/20 10:21:14;;;;;;;4.90;2.85;;;29.30;28.90;;;;;;5045890;28;20025;-70
2023/09/20 10:23:43;;;;;;;5.70;3.30;;;29.20;28.90;;;;;;5054173;28;20059;-69
2023/09/20 10:26:18;;;;;;;6.40;3.38;;;29.10;29.00;;;;;;5041898;28;20374;-70
2023/09/20 10:28:47;;;;;;;6.00;2.83;;;29.10;29.00;;;;;;5054464;28;20438;-70
2023/09/20 10:31:19;;;;;;;7.53;3.00;;;29.10;29.00;;;;;;5046794;28;20075;-70
2023/09/20 10:33:56;;;;;;;4.63;3.30;;;29.00;29.20;;;;;;5060223;28;20119;-70
2023/09/20 10:36:30;;;;;;;8.65;3.17;;;28.90;29.20;;;;;;5052771;28;20090;-70
2023/09/20 10:39:18;;;;;;;6.40;2.70;;;28.70;29.50;;;;;;5050617;28;20745;-69
2023/09/20 10:41:47;;;;;;;6.18;3.13;;;28.50;29.60;;;;;;5052100;28;20039;-70
2023/09/20 10:44:42;;;;;;;7.55;3.47;;;28.40;29.70;;;;;;5054891;28;20389;-70
2023/09/20 10:47:16;;;;;;;7.68;3.00;;;28.20;29.90;;;;;;5050096;28;20060;-70
2023/09/20 10:49:52;;;;;;;4.63;2.85;;;27.90;31.00;;;;;;5048579;28;20518;-69
2023/09/20 10:52:34;;;;;;;7.90;3.10;;;27.50;31.00;;;;;;5042323;28;20059;-71
2023/09/20 10:55:18;;;;;;;6.38;3.13;;;27.20;31.80;;;;;;5063104;28;20033;-69
2023/09/20 10:57:47;;;;;;;5.53;3.13;;;27.00;32.30;;;;;;5060315;28;20032;-70
2023/09/20 11:00:14;;;;;;;7.18;3.20;;;26.80;33.00;;;;;;5047777;28;20028;-69
2023/09/20 11:02:42;;;;;;;7.85;2.90;;;26.60;33.50;;;;;;5047842;28;20039;-70
2023/09/20 11:05:14;;;;;;;5.95;3.58;;;26.50;33.50;;;;;;5039095;28;20025;-70
2023/09/20 11:07:43;;;;;;;7.70;3.92;;;26.20;33.50;;;;;;5045249;28;20055;-70
2023/09/20 11:10:13;;;;;;;7.07;3.45;;;26.10;34.10;;;;;;5061543;28;20534;-70
2023/09/20 11:12:43;;;;;;;5.70;3.30;;;26.00;34.00;;;;;;5046563;28;20575;-71
2023/09/20 11:15:11;;;;;;;7.53;3.55;;;25.80;34.00;;;;;;5052094;28;20028;-70
2023/09/20 11:17:38;;;;;;;4.90;3.17;;;25.60;34.70;;;;;;5058082;28;20111;-72
2023/09/20 11:20:07;;;;;;;6.97;3.33;;;25.60;33.80;;;;;;5053455;28;20028;-70
2023/09/20 11:22:36;;;;;;;7.40;3.67;;;25.50;33.90;;;;;;5054800;28;20053;-70
2023/09/20 11:25:05;;;;;;;5.72;3.25;;;25.50;34.40;;;;;;5060289;28;20092;-70
2023/09/20 11:27:38;;;;;;;6.20;3.15;;;25.40;34.20;;;;;;5041486;28;20025;-71
2023/09/20 11:30:07;;;;;;;8.63;3.60;;;25.40;34.30;;;;;;5051704;28;20043;-71
2023/09/20 11:32:37;;;;;;;8.07;3.17;;;25.40;34.50;;;;;;5057303;28;20415;-70
2023/09/20 11:35:06;;;;;;;9.00;3.28;;;25.40;34.40;;;;;;5063924;28;20463;-69
2023/09/20 11:37:38;;;;;;;8.27;3.38;;;25.50;34.80;;;;;;5057223;28;20021;-69
2023/09/20 11:40:07;;;;;;;7.60;3.97;;;25.40;35.00;;;;;;5060227;28;20025;-71
2023/09/20 11:42:38;;;;;;;10.43;2.83;;;25.40;35.40;;;;;;5057013;28;20039;-69
2023/09/20 11:45:10;;;;;;;9.75;3.60;;;25.30;35.70;;;;;;5057788;28;20100;-70
2023/09/20 11:47:42;;;;;;;5.70;3.45;;;25.30;36.30;;;;;;5058144;28;20347;-70
2023/09/20 11:50:14;;;;;;;5.95;3.10;;;25.20;36.60;;;;;;5058561;28;20489;-70
2023/09/20 11:52:49;;;;;;;11.73;3.28;;;25.10;37.20;;;;;;5057127;28;20036;-70
2023/09/20 11:55:19;;;;;;;6.72;3.60;;;24.90;37.50;;;;;;5059603;28;20025;-71
2023/09/20 11:57:47;;;;;;;10.40;3.13;;;24.90;37.70;;;;;;5056997;28;20032;-70
2023/09/20 12:00:26;;;;;;;5.22;3.15;;;24.90;37.50;;;;;;5058831;28;20127;-70
2023/09/20 12:02:53;;;;;;;4.93;2.92;;;25.00;37.70;;;;;;5059903;28;20040;-69
2023/09/20 12:05:21;;;;;;;4.80;3.25;;;24.90;37.80;;;;;;5061659;28;20494;-70
2023/09/20 12:08:00;;;;;;;8.23;3.28;;;24.80;38.30;;;;;;5055524;28;20028;-70
2023/09/20 12:10:29;;;;;;;7.32;3.13;;;25.00;37.90;;;;;;5052271;28;20362;-69
2023/09/20 12:12:57;;;;;;;7.22;3.50;;;24.90;38.50;;;;;;5056463;28;20071;-70
2023/09/20 12:15:25;;;;;;;8.05;3.35;;;25.00;38.70;;;;;;5058298;28;20108;-71
2023/09/20 12:17:55;;;;;;;9.02;3.47;;;24.90;38.60;;;;;;5053367;28;20040;-71
2023/09/20 12:20:26;;;;;;;7.63;3.45;;;24.70;38.80;;;;;;5057176;28;20021;-69
2023/09/20 12:22:55;;;;;;;6.57;3.33;;;24.70;39.30;;;;;;5057632;28;20486;-71
2023/09/20 12:25:23;;;;;;;8.60;3.47;;;24.40;39.40;;;;;;5051651;28;20029;-71
2023/09/20 12:27:50;;;;;;;9.02;3.60;;;24.40;40.00;;;;;;5051790;28;20478;-70
2023/09/20 12:30:17;;;;;;;5.38;3.55;;;24.20;40.80;;;;;;5062646;28;20030;-69
2023/09/20 12:32:46;;;;;;;4.55;2.90;;;24.20;42.00;;;;;;5064359;28;20037;-70
2023/09/20 12:35:13;;;;;;;7.03;3.33;;;24.20;40.40;;;;;;5051628;28;20025;-69
2023/09/20 12:37:40;;;;;;;4.07;3.35;;;24.20;41.10;;;;;;5064097;28;20029;-69
2023/09/20 12:40:08;;;;;;;8.27;3.20;;;24.00;40.30;;;;;;5055070;28;20028;-70
2023/09/20 12:42:37;;;;;;;4.85;3.22;;;23.80;41.70;;;;;;5053479;28;20037;-70
2023/09/20 12:45:07;;;;;;;8.43;3.42;;;23.70;42.30;;;;;;5039221;28;20056;-70
2023/09/20 12:47:39;;;;;;;6.57;3.47;;;23.70;42.50;;;;;;5052935;28;20458;-68
2023/09/20 12:50:08;;;;;;;7.15;3.30;;;23.70;42.40;;;;;;5048621;28;20037;-70
2023/09/20 12:52:35;;;;;;;6.13;3.30;;;23.50;41.70;;;;;;5048619;28;20024;-70
2023/09/20 12:55:03;;;;;;;9.43;3.45;;;23.40;42.00;;;;;;5033418;28;20055;-70
2023/09/20 12:57:30;;;;;;;8.85;3.38;;;23.40;42.10;;;;;;5049555;28;20025;-70
2023/09/20 13:00:00;;;;;;;7.25;3.40;;;23.40;42.40;;;;;;5052744;28;20488;-69
2023/09/20 13:02:27;;;;;;;6.88;3.70;;;23.30;42.70;;;;;;5061104;28;20052;-70
2023/09/20 13:04:58;;;;;;;4.60;3.10;;;23.10;43.90;;;;;;5050023;28;20367;-69
2023/09/20 13:07:27;;;;;;;4.40;2.95;;;23.00;43.70;;;;;;5076277;28;20025;-70
2023/09/20 13:09:56;;;;;;;5.82;3.20;;;22.90;43.90;;;;;;5049431;28;20029;-69
2023/09/20 13:12:24;;;;;;;6.07;3.50;;;22.80;43.90;;;;;;5052671;28;20120;-70
2023/09/20 13:14:51;;;;;;;10.85;3.60;;;22.90;44.80;;;;;;5057190;28;20047;-70
2023/09/20 13:17:20;;;;;;;14.90;4.15;;;23.10;44.00;;;;;;5060879;28;20025;-70
2023/09/20 13:19:47;;;;;;;17.13;5.25;;;23.10;46.60;;;;;;5056749;28;20035;-70
2023/09/20 13:22:15;;;;;;;22.10;5.45;;;23.20;49.20;;;;;;5058750;28;20411;-71
2023/09/20 13:24:43;;;;;;;23.27;5.47;;;23.30;51.90;;;;;;5055328;28;20041;-70
2023/09/20 13:27:10;;;;;;;30.88;5.78;;;23.20;54.00;;;;;;5060334;28;20032;-69
2023/09/20 13:29:38;;;;;;;30.85;5.85;;;23.00;55.90;;;;;;5055634;28;20398;-69
2023/09/20 13:32:08;;;;;;;26.90;6.10;;;22.90;59.30;;;;;;5053446;28;20036;-71
2023/09/20 13:34:36;;;;;;;27.33;5.95;;;22.80;60.50;;;;;;5054959;28;20025;-70
2023/09/20 13:37:04;;;;;;;35.30;6.78;;;22.70;61.00;;;;;;5053697;28;20465;-70